createdAt,value
2023-02-12T00:02:34.658Z,23.33
2023-02-12T00:05:02.140Z,23.40
2023-02-12T00:07:31.060Z,23.87
2023-02-12T00:09:58.488Z,22.77
2023-02-12T00:15:28.293Z,23.50
2023-02-12T00:17:57.052Z,22.47
2023-02-12T00:20:24.487Z,23.03
2023-02-12T00:22:51.978Z,21.60
2023-02-12T00:25:19.766Z,21.90
2023-02-12T00:27:47.514Z,22.10
2023-02-12T00:30:17.963Z,23.63
2023-02-12T00:32:46.116Z,23.03
2023-02-12T00:38:19.105Z,24.30
2023-02-12T00:40:46.557Z,24.60
2023-02-12T00:43:14.067Z,23.20
2023-02-12T00:45:41.650Z,22.77
2023-02-12T00:48:09.082Z,21.83
2023-02-12T00:50:36.550Z,23.23
2023-02-12T00:53:04.007Z,22.03
2023-02-12T00:55:33.110Z,22.90
2023-02-12T00:58:00.730Z,25.13
2023-02-12T01:00:29.408Z,22.70
2023-02-12T01:02:57.891Z,22.13
2023-02-12T01:05:25.975Z,21.97
2023-02-12T01:07:54.526Z,23.00
2023-02-12T01:10:22.207Z,23.13
2023-02-12T01:12:51.474Z,23.57
2023-02-12T01:15:19.593Z,21.37
2023-02-12T01:17:47.313Z,22.90
2023-02-12T01:20:18.165Z,23.63
2023-02-12T01:22:45.777Z,22.03
2023-02-12T01:25:14.038Z,21.27
2023-02-12T01:30:31.623Z,20.60
2023-02-12T01:33:00.518Z,20.13
2023-02-12T01:35:28.014Z,19.90
2023-02-12T01:40:44.215Z,19.27
2023-02-12T01:43:13.145Z,20.70
2023-02-12T01:45:54.458Z,20.87
2023-02-12T01:48:24.890Z,22.27
2023-02-12T01:50:54.190Z,21.43
2023-02-12T01:56:12.374Z,19.97
2023-02-12T02:01:41.672Z,20.67
2023-02-12T02:04:13.348Z,20.17
2023-02-12T02:06:48.239Z,20.10
2023-02-12T02:09:16.250Z,20.50
2023-02-12T02:12:01.315Z,20.83
2023-02-12T02:14:34.770Z,20.73
2023-02-12T02:17:24.386Z,22.70
2023-02-12T02:20:26.018Z,22.07
2023-02-12T02:26:15.901Z,21.77
2023-02-12T02:29:00.165Z,21.57
2023-02-12T02:31:33.577Z,20.30
2023-02-12T02:34:05.131Z,20.83
2023-02-12T02:39:38.641Z,21.50
2023-02-12T02:42:10.694Z,21.87
2023-02-12T02:44:40.689Z,20.70
2023-02-12T02:47:11.322Z,21.20
2023-02-12T02:49:42.215Z,21.80
2023-02-12T02:52:13.520Z,21.17
2023-02-12T02:54:43.715Z,21.27
2023-02-12T02:57:14.340Z,20.50
2023-02-12T02:59:44.506Z,20.80
2023-02-12T03:02:17.531Z,20.30
2023-02-12T03:04:47.246Z,21.23
2023-02-12T03:07:17.994Z,21.93
2023-02-12T03:09:48.309Z,20.57
2023-02-12T03:12:18.653Z,20.87
2023-02-12T03:14:48.884Z,22.33
2023-02-12T03:17:19.625Z,21.17
2023-02-12T03:22:32.681Z,20.17
2023-02-12T03:25:05.561Z,19.63
2023-02-12T03:27:35.109Z,20.53
2023-02-12T03:30:04.006Z,20.50
2023-02-12T03:32:37.279Z,21.40
2023-02-12T03:35:10.841Z,19.93
2023-02-12T03:37:42.502Z,19.10
2023-02-12T03:40:16.642Z,19.97
2023-02-12T03:42:49.205Z,19.00
2023-02-12T03:45:23.134Z,19.40
2023-02-12T03:47:57.387Z,19.50
2023-02-12T03:50:30.333Z,18.73
2023-02-12T03:52:57.810Z,19.60
2023-02-12T03:55:25.436Z,18.03
2023-02-12T03:57:55.480Z,20.13
2023-02-12T04:00:24.693Z,18.27
2023-02-12T04:02:54.406Z,18.27
2023-02-12T04:05:23.730Z,20.20
2023-02-12T04:07:51.712Z,18.37
2023-02-12T04:10:47.897Z,19.13
2023-02-12T04:13:20.127Z,19.50
2023-02-12T04:18:41.493Z,18.37
2023-02-12T04:21:15.671Z,18.90
2023-02-12T04:23:51.049Z,20.37
2023-02-12T04:26:23.938Z,20.40
2023-02-12T04:28:59.450Z,20.00
2023-02-12T04:31:31.207Z,20.03
2023-02-12T04:34:06.690Z,20.30
2023-02-12T04:36:36.735Z,19.90
2023-02-12T04:39:06.265Z,19.57
2023-02-12T04:41:33.831Z,19.40
2023-02-12T04:44:14.902Z,19.33
2023-02-12T04:49:41.278Z,18.67
2023-02-12T04:52:09.263Z,19.57
2023-02-12T04:54:36.714Z,19.23
2023-02-12T04:57:04.714Z,18.87
2023-02-12T04:59:32.154Z,19.73
2023-02-12T05:01:59.624Z,20.37
2023-02-12T05:04:27.034Z,18.93
2023-02-12T05:06:55.790Z,18.57
2023-02-12T05:09:23.267Z,18.47
2023-02-12T05:14:54.247Z,18.23
2023-02-12T05:17:23.061Z,18.37
2023-02-12T05:19:50.545Z,17.07
2023-02-12T05:22:19.698Z,17.13
2023-02-12T05:24:47.230Z,17.20
2023-02-12T05:27:14.737Z,17.00
2023-02-12T05:29:42.339Z,17.57
2023-02-12T05:32:10.123Z,15.60
2023-02-12T05:34:38.272Z,15.83
2023-02-12T05:37:05.715Z,15.27
2023-02-12T05:39:34.442Z,16.33
2023-02-12T05:44:50.838Z,16.30
2023-02-12T05:47:18.442Z,15.97
2023-02-12T05:49:45.867Z,16.27
2023-02-12T05:52:13.271Z,16.63
2023-02-12T05:54:42.253Z,15.60
2023-02-12T05:57:09.705Z,15.80
2023-02-12T06:02:04.265Z,17.40
2023-02-12T06:04:31.779Z,16.00
2023-02-12T06:07:00.793Z,17.20
2023-02-12T06:09:28.256Z,17.53
2023-02-12T06:11:57.019Z,17.23
2023-02-12T06:14:24.549Z,19.30
2023-02-12T06:16:52.856Z,18.50
2023-02-12T06:19:21.322Z,19.00
2023-02-12T06:21:48.836Z,18.57
2023-02-12T06:24:17.409Z,21.03
2023-02-12T06:26:44.889Z,20.43
2023-02-12T06:29:14.104Z,19.93
2023-02-12T06:31:41.968Z,20.73
2023-02-12T06:34:11.692Z,20.70
2023-02-12T06:36:40.367Z,21.50
2023-02-12T06:39:08.548Z,22.17
2023-02-12T06:41:36.009Z,21.30
2023-02-12T06:44:03.879Z,24.33
2023-02-12T06:46:32.702Z,23.90
2023-02-12T06:49:01.426Z,24.70
2023-02-12T06:51:31.280Z,24.83
2023-02-12T06:53:59.165Z,25.70
2023-02-12T06:56:27.811Z,27.00
2023-02-12T07:01:53.545Z,25.07
2023-02-12T07:04:21.406Z,25.30
2023-02-12T07:06:48.994Z,26.10
2023-02-12T07:09:16.478Z,26.90
2023-02-12T07:11:43.932Z,27.03
2023-02-12T07:14:14.630Z,25.60
2023-02-12T07:16:42.129Z,26.93
2023-02-12T07:19:12.783Z,27.60
2023-02-12T07:21:40.198Z,25.77
2023-02-12T07:24:08.907Z,25.30
2023-02-12T07:29:44.255Z,26.07
2023-02-12T07:35:15.793Z,25.97
2023-02-12T07:37:43.258Z,26.50
2023-02-12T07:40:11.190Z,27.23
2023-02-12T07:42:38.670Z,25.93
2023-02-12T07:47:56.459Z,26.20
2023-02-12T07:50:25.261Z,27.37
2023-02-12T07:52:52.693Z,26.93
2023-02-12T07:55:20.093Z,27.17
2023-02-12T07:57:47.561Z,27.30
2023-02-12T08:00:16.315Z,27.57
2023-02-12T08:02:43.828Z,27.80
2023-02-12T08:05:11.267Z,27.47
2023-02-12T08:10:33.142Z,27.03
2023-02-12T08:16:01.278Z,26.77
2023-02-12T08:18:28.744Z,28.23
2023-02-12T08:23:45.987Z,28.83
2023-02-12T08:26:16.598Z,27.97
2023-02-12T08:28:46.683Z,28.57
2023-02-12T08:31:16.515Z,29.20
2023-02-12T08:33:45.263Z,28.17
2023-02-12T08:36:14.542Z,27.57
2023-02-12T08:41:31.622Z,27.10
2023-02-12T08:44:00.301Z,27.17
2023-02-12T08:46:29.519Z,27.03
2023-02-12T08:48:58.430Z,27.77
2023-02-12T08:51:27.466Z,27.40
2023-02-12T08:53:56.256Z,24.17
2023-02-12T08:56:25.004Z,25.60
2023-02-12T08:58:53.807Z,25.23
2023-02-12T09:04:26.410Z,25.07
2023-02-12T09:06:54.086Z,24.93
2023-02-12T09:09:21.670Z,24.43
2023-02-12T09:11:49.410Z,24.97
2023-02-12T09:17:06.622Z,24.93
2023-02-12T09:19:34.030Z,27.33
2023-02-12T09:22:01.492Z,28.20
2023-02-12T09:24:28.952Z,28.33
2023-02-12T09:26:56.571Z,27.23
2023-02-12T09:29:24.019Z,27.37
2023-02-12T09:31:51.603Z,27.57
2023-02-12T09:34:20.399Z,28.27
2023-02-12T09:36:47.853Z,28.23
2023-02-12T09:42:17.702Z,26.80
2023-02-12T09:44:47.661Z,28.10
2023-02-12T09:47:19.467Z,28.17
2023-02-12T09:52:52.111Z,26.63
2023-02-12T09:55:20.568Z,28.13
2023-02-12T09:57:48.348Z,28.20
2023-02-12T10:00:17.643Z,29.03
2023-02-12T10:02:45.141Z,29.93
2023-02-12T10:05:16.728Z,30.33
2023-02-12T10:08:05.558Z,30.00
2023-02-12T10:10:45.228Z,29.03
2023-02-12T10:13:21.469Z,30.73
2023-02-12T10:15:53.230Z,30.30
2023-02-12T10:18:41.803Z,28.60
2023-02-12T10:21:17.275Z,27.37
2023-02-12T10:26:49.139Z,27.13
2023-02-12T10:29:18.581Z,24.53
2023-02-12T10:31:49.584Z,24.27
2023-02-12T10:34:19.915Z,23.03
2023-02-12T10:36:49.723Z,22.87
2023-02-12T10:39:22.318Z,20.07
2023-02-12T10:44:49.755Z,19.03
2023-02-12T10:50:25.639Z,18.00
2023-02-12T10:52:57.447Z,17.27
2023-02-12T10:55:28.317Z,15.33
2023-02-12T10:57:56.402Z,14.70
2023-02-12T11:00:28.386Z,17.17
2023-02-12T11:03:09.792Z,15.23
2023-02-12T11:05:39.414Z,14.90
2023-02-12T11:08:08.209Z,16.67
2023-02-12T11:10:38.857Z,15.50
2023-02-12T11:13:07.481Z,14.77
2023-02-12T11:15:39.754Z,14.53
2023-02-12T11:18:09.303Z,14.67
2023-02-12T11:20:39.811Z,14.17
2023-02-12T11:23:22.750Z,14.50
2023-02-12T11:25:57.469Z,13.77
2023-02-12T11:28:25.379Z,14.00
2023-02-12T11:30:56.031Z,12.03
2023-02-12T11:33:27.566Z,12.53
2023-02-12T11:35:57.061Z,11.67
2023-02-12T11:38:28.329Z,11.80
2023-02-12T11:40:59.731Z,11.97
2023-02-12T11:43:29.302Z,13.63
2023-02-12T11:45:57.676Z,10.60
2023-02-12T11:48:29.066Z,12.10
2023-02-12T11:50:58.411Z,12.00
2023-02-12T11:53:28.398Z,11.93
2023-02-12T11:55:58.595Z,12.37
2023-02-12T11:58:27.002Z,12.90
2023-02-12T12:01:00.129Z,13.80
2023-02-12T12:03:31.178Z,12.73
2023-02-12T12:06:03.451Z,12.17
2023-02-12T12:08:37.039Z,12.83
2023-02-12T12:11:10.955Z,11.00
2023-02-12T12:17:02.326Z,11.67
2023-02-12T12:19:52.274Z,13.10
2023-02-12T12:22:28.259Z,12.43
2023-02-12T12:24:59.117Z,11.63
2023-02-12T12:27:52.555Z,12.80
2023-02-12T12:30:24.252Z,12.57
2023-02-12T12:32:53.750Z,12.77
2023-02-12T12:35:26.718Z,11.47
2023-02-12T12:37:55.832Z,11.73
2023-02-12T12:40:42.052Z,12.03
2023-02-12T12:43:14.747Z,11.60
2023-02-12T12:45:57.814Z,11.30
2023-02-12T12:48:38.794Z,10.53
2023-02-12T12:51:19.910Z,9.33
2023-02-12T12:56:46.673Z,11.07
2023-02-12T12:59:40.762Z,10.70
2023-02-12T13:02:47.165Z,9.90
2023-02-12T13:05:30.699Z,9.30
2023-02-12T13:08:03.672Z,9.47
2023-02-12T13:10:35.463Z,9.47
2023-02-12T13:13:14.593Z,10.43
2023-02-12T13:15:46.655Z,9.47
2023-02-12T13:18:23.036Z,9.63
2023-02-12T13:20:52.803Z,9.63
2023-02-12T13:23:29.289Z,9.87
2023-02-12T13:26:02.959Z,9.90
2023-02-12T13:28:35.203Z,9.73
2023-02-12T13:31:16.267Z,9.73
2023-02-12T13:33:56.148Z,8.27
2023-02-12T13:36:23.590Z,8.00
2023-02-12T13:38:57.450Z,7.60
2023-02-12T13:41:28.868Z,8.30
2023-02-12T13:44:07.335Z,8.60
2023-02-12T13:46:41.907Z,7.83
2023-02-12T13:49:19.913Z,8.50
2023-02-12T13:51:49.269Z,8.13
2023-02-12T13:57:30.282Z,8.93
2023-02-12T13:59:59.921Z,8.07
2023-02-12T14:02:47.446Z,8.03
2023-02-12T14:05:32.984Z,8.37
2023-02-12T14:11:06.442Z,7.30
2023-02-12T14:13:37.567Z,7.60
2023-02-12T14:16:21.577Z,7.70
2023-02-12T14:18:49.153Z,7.60
2023-02-12T14:21:37.841Z,7.83
2023-02-12T14:24:42.681Z,7.73
2023-02-12T14:27:25.881Z,7.00
2023-02-12T14:30:29.142Z,7.53
2023-02-12T14:33:11.752Z,6.97
2023-02-12T14:35:40.326Z,6.53
2023-02-12T14:38:47.494Z,6.70
2023-02-12T14:41:34.195Z,7.00
2023-02-12T14:44:43.287Z,6.37
2023-02-12T14:47:55.900Z,6.07
2023-02-12T14:50:27.808Z,6.10
2023-02-12T14:53:01.264Z,6.47
2023-02-12T14:55:33.893Z,6.10
2023-02-12T14:58:04.430Z,7.27
2023-02-12T15:03:34.693Z,6.70
2023-02-12T15:06:05.922Z,7.17
2023-02-12T15:08:37.965Z,6.43
2023-02-12T15:11:14.777Z,6.40
2023-02-12T15:13:49.565Z,6.40
2023-02-12T15:16:24.125Z,6.90
2023-02-12T15:18:55.834Z,6.80
2023-02-12T15:21:27.537Z,6.87
2023-02-12T15:24:02.168Z,6.80
2023-02-12T15:26:30.868Z,7.03
2023-02-12T15:28:58.412Z,6.50
2023-02-12T15:31:29.625Z,6.40
2023-02-12T15:36:56.131Z,6.97
2023-02-12T15:39:24.816Z,7.33
2023-02-12T15:44:52.088Z,7.37
2023-02-12T15:47:24.589Z,8.20
2023-02-12T15:49:52.054Z,7.23
2023-02-12T15:52:24.612Z,7.33
2023-02-12T15:54:52.197Z,7.07
2023-02-12T15:57:22.840Z,6.80
2023-02-12T15:59:51.521Z,7.80
2023-02-12T16:05:22.335Z,7.50
2023-02-12T16:07:51.397Z,7.60
2023-02-12T16:10:20.267Z,7.60
2023-02-12T16:16:04.641Z,7.73
2023-02-12T16:18:32.231Z,7.57
2023-02-12T16:21:05.183Z,6.97
2023-02-12T16:23:36.011Z,7.10
2023-02-12T16:26:04.235Z,7.43
2023-02-12T16:28:35.337Z,7.87
2023-02-12T16:31:11.390Z,8.17
2023-02-12T16:33:45.236Z,7.40
2023-02-12T16:40:07.634Z,7.53
2023-02-12T16:42:35.083Z,7.10
2023-02-12T16:45:02.642Z,7.53
2023-02-12T16:47:30.102Z,7.87
2023-02-12T16:50:00.111Z,7.73
2023-02-12T16:52:33.745Z,9.20
2023-02-12T16:55:02.649Z,9.07
2023-02-12T16:57:30.059Z,9.27
2023-02-12T16:59:57.479Z,9.33
2023-02-12T17:02:24.891Z,8.93
2023-02-12T17:04:56.739Z,9.30
2023-02-12T17:07:28.073Z,9.23
2023-02-12T17:09:55.801Z,9.00
2023-02-12T17:12:24.863Z,9.93
2023-02-12T17:14:53.922Z,9.57
2023-02-12T17:20:24.351Z,8.63
2023-02-12T17:22:53.402Z,7.80
2023-02-12T17:25:21.659Z,9.17
2023-02-12T17:27:50.427Z,9.07
2023-02-12T17:30:24.037Z,9.73
2023-02-12T17:33:03.084Z,9.10
2023-02-12T17:35:30.654Z,9.23
2023-02-12T17:37:58.215Z,9.90
2023-02-12T17:40:25.725Z,9.80
2023-02-12T17:42:54.689Z,10.07
2023-02-12T17:48:18.334Z,9.33
2023-02-12T17:50:45.850Z,10.17
2023-02-12T17:53:13.319Z,9.47
2023-02-12T17:55:41.699Z,9.50
2023-02-12T17:58:10.681Z,9.87
2023-02-12T18:00:38.104Z,9.60
2023-02-12T18:03:05.515Z,9.83
2023-02-12T18:05:32.980Z,10.03
2023-02-12T18:08:02.229Z,9.47
2023-02-12T18:10:53.759Z,9.17
2023-02-12T18:13:22.816Z,8.70
2023-02-12T18:18:53.386Z,9.20
2023-02-12T18:21:21.255Z,8.60
2023-02-12T18:23:48.714Z,8.87
2023-02-12T18:26:18.382Z,9.73
2023-02-12T18:31:45.763Z,10.97
2023-02-12T18:34:13.255Z,9.43
2023-02-12T18:36:40.670Z,10.67
2023-02-12T18:39:08.162Z,11.73
2023-02-12T18:41:36.195Z,11.43
2023-02-12T18:44:05.171Z,11.23
2023-02-12T18:46:32.994Z,11.33
2023-02-12T18:49:14.240Z,11.50
2023-02-12T18:51:41.651Z,10.83
2023-02-12T18:54:11.952Z,11.47
2023-02-12T18:56:43.436Z,11.30
2023-02-12T18:59:13.115Z,10.77
2023-02-12T19:01:40.921Z,10.83
2023-02-12T19:04:11.096Z,10.80
2023-02-12T19:06:41.621Z,10.30
2023-02-12T19:09:09.921Z,10.40
2023-02-12T19:11:37.378Z,9.77
2023-02-12T19:17:03.242Z,8.20
2023-02-12T19:19:30.713Z,10.70
2023-02-12T19:21:59.477Z,10.53
2023-02-12T19:24:35.017Z,10.50
2023-02-12T19:27:12.069Z,9.67
2023-02-12T19:29:39.485Z,9.57
2023-02-12T19:32:06.951Z,9.60
2023-02-12T19:37:38.609Z,10.40
2023-02-12T19:40:07.225Z,9.43
2023-02-12T19:42:34.683Z,9.03
2023-02-12T19:45:02.110Z,9.30
2023-02-12T19:47:29.511Z,8.90
2023-02-12T19:49:56.932Z,9.07
2023-02-12T19:52:24.330Z,9.90
2023-02-12T19:54:53.274Z,9.30
2023-02-12T19:57:20.743Z,8.80
2023-02-12T19:59:48.201Z,9.13
2023-02-12T20:02:15.704Z,9.30
2023-02-12T20:04:43.202Z,9.30
2023-02-12T20:07:10.776Z,9.73
2023-02-12T20:09:38.200Z,11.00
2023-02-12T20:12:07.432Z,9.67
2023-02-12T20:14:35.523Z,9.63
2023-02-12T20:17:02.944Z,9.00
2023-02-12T20:19:33.754Z,9.30
2023-02-12T20:22:03.102Z,11.90
2023-02-12T20:24:32.472Z,13.57
2023-02-12T20:27:01.571Z,9.80
2023-02-12T20:29:30.361Z,8.83
2023-02-12T20:31:58.117Z,9.57
2023-02-12T20:34:25.615Z,8.03
2023-02-12T20:36:53.815Z,8.60
2023-02-12T20:39:21.497Z,8.17
2023-02-12T20:42:01.938Z,8.50
2023-02-12T20:44:30.951Z,8.53
2023-02-12T20:46:58.355Z,9.07
2023-02-12T20:49:25.964Z,9.30
2023-02-12T20:51:53.434Z,9.17
2023-02-12T20:54:20.937Z,9.33
2023-02-12T20:56:49.918Z,9.87
2023-02-12T20:59:18.257Z,9.33
2023-02-12T21:01:47.413Z,10.00
2023-02-12T21:04:16.502Z,9.13
2023-02-12T21:06:44.749Z,9.13
2023-02-12T21:09:13.618Z,9.83
2023-02-12T21:11:42.441Z,10.53
2023-02-12T21:14:26.034Z,10.17
2023-02-12T21:16:45.090Z,9.70
2023-02-12T21:19:14.719Z,9.93
2023-02-12T21:21:44.718Z,10.57
2023-02-12T21:24:15.723Z,10.10
2023-02-12T21:26:43.742Z,10.10
2023-02-12T21:29:11.249Z,10.50
2023-02-12T21:31:40.970Z,11.20
2023-02-12T21:34:09.996Z,11.40
2023-02-12T21:36:41.073Z,10.83
2023-02-12T21:39:10.478Z,11.27
2023-02-12T21:41:39.887Z,10.77
2023-02-12T21:44:08.778Z,10.20
2023-02-12T21:46:37.093Z,9.77
2023-02-12T21:52:08.064Z,9.97
2023-02-12T21:57:33.240Z,9.67
2023-02-12T22:00:00.955Z,11.80
2023-02-12T22:02:28.465Z,10.87
2023-02-12T22:04:55.971Z,11.33
2023-02-12T22:07:24.728Z,11.67
2023-02-12T22:09:52.153Z,10.70
2023-02-12T22:12:19.598Z,10.80
2023-02-12T22:14:47.036Z,8.67
2023-02-12T22:17:14.447Z,9.03
2023-02-12T22:19:42.821Z,8.63
2023-02-12T22:22:10.250Z,9.10
2023-02-12T22:24:38.990Z,9.23
2023-02-12T22:27:06.402Z,9.50
2023-02-12T22:29:33.836Z,8.90
2023-02-12T22:32:01.424Z,9.33
2023-02-12T22:34:28.923Z,9.77
2023-02-12T22:36:56.351Z,9.50
2023-02-12T22:39:23.805Z,9.27
2023-02-12T22:41:52.625Z,8.93
2023-02-12T22:44:21.330Z,9.13
2023-02-12T22:46:49.201Z,8.50
2023-02-12T22:49:16.832Z,8.40
2023-02-12T22:51:45.822Z,8.50
2023-02-12T22:54:15.131Z,8.03
2023-02-12T22:56:42.915Z,7.80
2023-02-12T22:59:12.776Z,9.27
2023-02-12T23:01:40.292Z,8.17
2023-02-12T23:04:07.945Z,7.90
2023-02-12T23:06:35.418Z,8.67
2023-02-12T23:09:04.870Z,8.87
2023-02-12T23:14:22.795Z,7.37
2023-02-12T23:16:50.342Z,7.90
2023-02-12T23:19:17.870Z,7.50
2023-02-12T23:21:45.362Z,8.17
2023-02-12T23:24:16.017Z,7.47
2023-02-12T23:26:43.747Z,7.53
2023-02-12T23:32:15.590Z,7.87
2023-02-12T23:34:43.166Z,8.60
2023-02-12T23:37:10.595Z,7.50
2023-02-12T23:42:41.001Z,8.30
2023-02-12T23:45:09.871Z,7.50
2023-02-12T23:47:38.600Z,8.17
2023-02-12T23:50:07.259Z,8.27
2023-02-12T23:55:23.256Z,7.60
2023-02-12T23:57:50.891Z,8.47
